Time;durP1;ratioP1;P1;durP2;ratioP2;P2;SDS_P1;SDS_P2;PMS_P1;PMS_P2;Temp;Humidity;BMP_temperature;BMP_pressure;BME280_temperature;BME280_humidity;BME280_pressure;Samples;Min_cycle;Max_cycle;Signal;HPM_P1;HPM_P2
2022/04/27 00:01:49;;;;;;;5.95;4.92;;;;;;;8.10;52.81;101285.89;1601840;88;21021;-82
2022/04/27 00:04:15;;;;;;;5.67;5.15;;;;;;;8.08;52.90;101283.31;1597394;88;21014;-81
2022/04/27 00:06:41;;;;;;;6.15;5.42;;;;;;;8.06;53.03;101288.88;1601908;88;21588;-81
2022/04/27 00:09:07;;;;;;;10.73;6.20;;;;;;;8.05;53.08;101290.16;1601643;89;21026;-81
2022/04/27 00:11:33;;;;;;;8.75;7.05;;;;;;;8.02;53.13;101290.14;1597018;88;21109;-81
2022/04/27 00:14:04;;;;;;;14.40;7.20;;;;;;;7.97;53.18;101296.12;1605383;88;21054;-81
2022/04/27 00:16:28;;;;;;;10.90;6.78;;;;;;;7.90;53.29;101293.51;1603960;89;21661;-80
2022/04/27 00:18:54;;;;;;;8.85;6.75;;;;;;;7.86;53.33;101296.49;1587548;88;21088;-80
2022/04/27 00:21:20;;;;;;;14.65;7.30;;;;;;;7.89;53.51;101298.22;1614587;88;21635;-80
2022/04/27 00:23:47;;;;;;;15.07;8.63;;;;;;;7.92;53.58;101296.53;1614957;88;21000;-80
2022/04/27 00:26:13;;;;;;;16.32;9.18;;;;;;;7.94;53.69;101299.11;1612259;88;21092;-81
2022/04/27 00:28:39;;;;;;;;;;;;;;;7.97;53.70;101299.99;1565510;90;21623;-81
2022/04/27 00:31:05;;;;;;;12.18;7.92;;;;;;;8.02;54.43;101297.87;1582196;90;20238;-81
2022/04/27 00:33:32;;;;;;;9.63;7.13;;;;;;;8.02;53.85;101303.02;1582725;90;21757;-81
2022/04/27 00:35:58;;;;;;;9.33;7.03;;;;;;;8.00;53.90;101300.44;1582634;89;21100;-80
2022/04/27 00:38:24;;;;;;;;;;;;;;;8.00;53.95;101298.28;1589432;89;21037;-81
2022/04/27 00:40:50;;;;;;;14.43;7.25;;;;;;;7.99;54.66;101296.14;1590357;89;20296;-81
2022/04/27 00:43:36;;;;;;;16.53;8.97;;;;;;;8.00;54.10;101297.00;1601838;89;21030;-82
2022/04/27 00:46:02;;;;;;;14.00;9.35;;;;;;;7.98;54.07;101294.41;1597993;89;20992;-82
2022/04/27 00:48:28;;;;;;;14.03;9.45;;;;;;;7.93;54.13;101299.53;1606666;89;21128;-81
2022/04/27 00:50:56;;;;;;;12.78;9.18;;;;;;;7.90;54.26;101293.08;1605616;89;21108;-81
2022/04/27 00:53:22;;;;;;;11.60;7.47;;;;;;;7.88;54.33;101293.50;1605393;89;21077;-81
2022/04/27 00:55:49;;;;;;;12.30;8.15;;;;;;;7.85;54.38;101287.47;1605733;89;21780;-81
2022/04/27 00:58:17;;;;;;;9.73;7.95;;;;;;;7.84;54.45;101292.19;1605756;87;21301;-81
2022/04/27 01:00:44;;;;;;;11.73;8.25;;;;;;;7.82;54.47;101296.46;1605616;88;21144;-81
2022/04/27 01:03:10;;;;;;;9.33;7.85;;;;;;;7.79;54.51;101295.19;1605752;88;21082;-80
2022/04/27 01:05:37;;;;;;;13.95;7.72;;;;;;;7.77;54.55;101299.46;1605632;88;20998;-81
2022/04/27 01:08:04;;;;;;;12.23;8.50;;;;;;;7.73;54.57;101302.44;1566931;90;20965;-80
2022/04/27 01:10:30;;;;;;;13.25;8.68;;;;;;;7.65;54.63;101302.81;1590089;90;20917;-82
2022/04/27 01:12:57;;;;;;;14.83;8.27;;;;;;;7.59;54.72;101303.63;1577771;89;22010;-82
2022/04/27 01:15:36;;;;;;;12.63;8.90;;;;;;;7.58;54.76;101304.91;1613902;88;20972;-81
2022/04/27 01:18:03;;;;;;;14.10;8.70;;;;;;;7.56;54.84;101307.89;1614695;88;21477;-80
2022/04/27 01:20:37;;;;;;;13.35;8.83;;;;;;;7.52;54.83;101303.58;1615988;88;20906;-81
2022/04/27 01:23:07;;;;;;;12.95;8.65;;;;;;;7.45;54.88;101303.95;1615274;88;20982;-81
2022/04/27 01:25:50;;;;;;;17.35;9.55;;;;;;;7.40;54.99;101313.34;1613857;88;21164;-81
2022/04/27 01:28:19;;;;;;;11.93;7.80;;;;;;;7.32;54.97;101312.42;1611117;88;21101;-80
2022/04/27 01:30:45;;;;;;;13.22;9.23;;;;;;;7.25;54.99;101319.67;1613421;88;21149;-82
2022/04/27 01:33:12;;;;;;;14.87;10.35;;;;;;;7.17;55.07;101310.60;1611259;88;21133;-82
2022/04/27 01:35:40;;;;;;;;;;;;;;;7.12;55.22;101317.41;1618012;88;20930;-81
2022/04/27 01:38:07;;;;;;;15.32;8.18;;;;;;;7.10;55.95;101315.67;1615472;88;20158;-81
2022/04/27 01:40:34;;;;;;;13.88;9.18;;;;;;;7.07;55.26;101316.93;1600288;88;20964;-81
2022/04/27 01:43:00;;;;;;;14.03;9.20;;;;;;;7.04;55.35;101316.48;1615631;88;20929;-81
2022/04/27 01:45:26;;;;;;;12.82;8.93;;;;;;;6.99;55.39;101318.14;1615532;88;20954;-80
2022/04/27 01:47:53;;;;;;;16.27;8.80;;;;;;;6.96;55.47;101326.69;1615526;88;20942;-81
2022/04/27 01:50:20;;;;;;;13.98;8.68;;;;;;;6.93;55.57;101331.80;1615822;88;20970;-80
2022/04/27 01:55:38;;;;;;;14.23;9.15;;;;;;;6.90;55.65;101332.19;1615369;88;20961;-80
2022/04/27 01:58:04;;;;;;;12.50;7.67;;;;;;;6.88;55.72;101328.31;1615542;87;20957;-80
2022/04/27 02:00:30;;;;;;;13.10;8.70;;;;;;;6.87;55.78;101332.15;1615803;88;21005;-81
2022/04/27 02:02:56;;;;;;;16.10;9.23;;;;;;;6.86;55.83;101331.71;1612804;88;21269;-82
2022/04/27 02:05:22;;;;;;;14.68;9.18;;;;;;;6.83;55.98;101329.97;1604451;88;20952;-81
2022/04/27 02:07:48;;;;;;;14.55;9.25;;;;;;;6.83;55.98;101332.55;1615431;88;20982;-82
2022/04/27 02:10:14;;;;;;;13.90;9.77;;;;;;;6.80;56.03;101330.36;1612552;87;20898;-83
2022/04/27 02:12:40;;;;;;;12.05;8.60;;;;;;;6.78;56.11;101332.91;1612075;87;20963;-81
2022/04/27 02:15:08;;;;;;;13.33;8.97;;;;;;;6.78;56.25;101332.05;1617867;88;20867;-81
2022/04/27 02:17:35;;;;;;;15.00;9.13;;;;;;;6.76;56.21;101336.34;1617448;87;21025;-80
2022/04/27 02:20:04;;;;;;;13.03;8.33;;;;;;;6.71;56.22;101331.16;1617652;88;20937;-81
2022/04/27 02:22:33;;;;;;;12.90;8.65;;;;;;;6.68;56.28;101332.40;1617844;87;21387;-81
2022/04/27 02:25:01;;;;;;;12.30;8.88;;;;;;;6.68;56.42;101336.26;1617498;88;20970;-81
2022/04/27 02:27:29;;;;;;;12.93;8.23;;;;;;;6.69;56.42;101337.98;1616942;88;21069;-80
2022/04/27 02:29:56;;;;;;;13.98;9.05;;;;;;;6.64;56.47;101335.36;1616249;87;21096;-80
2022/04/27 02:32:22;;;;;;;16.87;10.03;;;;;;;6.64;56.63;101336.64;1616180;88;21096;-82
2022/04/27 02:34:48;;;;;;;14.23;9.77;;;;;;;6.68;56.68;101336.67;1616181;87;21719;-80
2022/04/27 02:37:14;;;;;;;15.48;9.38;;;;;;;6.71;56.72;101339.28;1616401;87;21092;-80
2022/04/27 02:39:42;;;;;;;12.85;8.03;;;;;;;6.71;56.73;101346.57;1615617;87;21205;-82
2022/04/27 02:42:08;;;;;;;13.17;8.83;;;;;;;6.69;56.68;101340.98;1616330;88;21513;-80
2022/04/27 02:44:34;;;;;;;11.97;8.95;;;;;;;6.64;56.75;101347.34;1591835;87;295507;-82
2022/04/27 02:47:01;;;;;;;14.53;9.10;;;;;;;6.61;56.89;101339.17;1603397;87;21087;-81
2022/04/27 02:52:13;;;;;;;13.45;9.15;;;;;;;6.56;56.95;101342.53;1585570;89;21140;-80
2022/04/27 02:54:38;;;;;;;;;;;;;;;6.52;57.01;101342.05;1580101;90;21155;-80
2022/04/27 02:57:05;;;;;;;11.78;8.45;;;;;;;6.50;57.67;101347.17;1563014;91;20212;-80
2022/04/27 02:59:31;;;;;;;13.72;9.38;;;;;;;6.52;57.25;101344.63;1617058;87;21507;-80
2022/04/27 03:01:57;;;;;;;22.67;11.17;;;;;;;6.53;57.25;101346.34;1609901;87;21040;-81
2022/04/27 03:04:23;;;;;;;19.30;10.58;;;;;;;6.53;57.39;101346.34;1605574;88;21149;-81
2022/04/27 03:06:49;;;;;;;32.83;15.03;;;;;;;6.54;57.43;101346.38;1604174;88;20998;-80
2022/04/27 03:09:19;;;;;;;22.42;13.25;;;;;;;6.57;57.45;101346.83;1605096;88;21068;-80
2022/04/27 03:11:45;;;;;;;27.23;12.53;;;;;;;6.56;57.46;101354.09;1605668;89;21013;-80
2022/04/27 03:14:10;;;;;;;18.83;12.23;;;;;;;6.57;57.58;101346.83;1605699;88;21135;-80
2022/04/27 03:16:36;;;;;;;20.70;11.60;;;;;;;6.59;57.61;101356.28;1604296;89;20926;-81
2022/04/27 03:19:02;;;;;;;18.50;11.70;;;;;;;6.59;57.62;101355.42;1605205;88;21693;-80
2022/04/27 03:21:29;;;;;;;21.13;12.53;;;;;;;6.60;57.75;101354.58;1597820;88;21062;-80
2022/04/27 03:23:57;;;;;;;20.85;11.75;;;;;;;6.61;57.73;101352.45;1590371;88;20990;-82
2022/04/27 03:26:23;;;;;;;19.77;12.20;;;;;;;6.60;57.76;101356.72;1606913;89;20945;-80
2022/04/27 03:28:49;;;;;;;20.97;12.25;;;;;;;6.60;57.85;101358.01;1607066;89;20962;-80
2022/04/27 03:31:15;;;;;;;22.47;12.20;;;;;;;6.63;57.90;101361.03;1606903;88;21666;-80
2022/04/27 03:33:41;;;;;;;16.10;11.13;;;;;;;6.65;57.96;101368.34;1606995;88;20898;-80
2022/04/27 03:36:08;;;;;;;23.90;11.90;;;;;;;6.67;58.05;101370.52;1606617;89;20901;-80
2022/04/27 03:38:36;;;;;;;20.25;12.00;;;;;;;6.71;58.14;101363.70;1607000;88;20914;-80
2022/04/27 03:41:02;;;;;;;14.40;10.13;;;;;;;6.75;58.20;101371.89;1606660;88;20985;-81
2022/04/27 03:43:27;;;;;;;17.13;10.60;;;;;;;6.79;58.25;101370.62;1606820;88;21703;-80
2022/04/27 03:45:54;;;;;;;16.13;10.43;;;;;;;6.78;58.25;101364.18;1607040;88;20995;-81
2022/04/27 03:48:20;;;;;;;16.43;10.77;;;;;;;6.78;58.25;101364.18;1606671;88;21356;-82
2022/04/27 03:50:45;;;;;;;21.53;12.13;;;;;;;6.87;58.44;101374.56;1606472;88;20945;-81
2022/04/27 03:53:11;;;;;;;16.20;10.77;;;;;;;6.89;58.49;101381.45;1600377;88;20898;-82
2022/04/27 03:55:37;;;;;;;17.20;11.07;;;;;;;6.93;58.51;101380.64;1606931;88;20958;-82
2022/04/27 03:58:05;;;;;;;19.57;9.50;;;;;;;6.96;58.56;101383.25;1598014;88;20974;-82
2022/04/27 04:00:38;;;;;;;18.12;10.23;;;;;;;6.99;58.62;101381.13;1595929;87;20898;-82
2022/04/27 04:03:05;;;;;;;13.15;9.93;;;;;;;7.04;58.67;101391.05;1602853;87;20961;-81
2022/04/27 04:05:31;;;;;;;18.80;10.85;;;;;;;7.05;58.74;101394.06;1605458;87;20960;-81
2022/04/27 04:07:58;;;;;;;26.27;14.43;;;;;;;7.11;58.80;101394.13;1603510;88;21116;-83
2022/04/27 04:10:24;;;;;;;44.55;21.12;;;;;;;7.16;58.91;101398.03;1592262;87;21023;-84
2022/04/27 04:12:51;;;;;;;73.02;33.63;;;;;;;7.21;58.94;101399.81;1578504;90;21178;-82
2022/04/27 04:15:17;;;;;;;40.50;21.15;;;;;;;7.23;58.84;101403.26;1575146;91;21189;-84
2022/04/27 04:17:45;;;;;;;26.63;15.50;;;;;;;7.23;58.91;101404.97;1575449;91;21223;-83
2022/04/27 04:20:14;;;;;;;21.82;13.18;;;;;;;7.27;58.97;101408.88;1575446;91;21186;-85
2022/04/27 04:22:41;;;;;;;24.18;13.45;;;;;;;7.29;58.97;101408.44;1576653;90;21088;-85
2022/04/27 04:30:28;;;;;;;24.25;14.87;;;;;;;7.42;59.23;101416.28;1568742;91;21079;-84
2022/04/27 04:32:55;;;;;;;21.50;10.60;;;;;;;7.47;59.27;101419.75;1558450;91;21559;-83
2022/04/27 04:35:21;;;;;;;26.07;11.77;;;;;;;7.47;59.30;101423.62;1572003;90;20983;-83
2022/04/27 04:37:48;;;;;;;15.80;11.33;;;;;;;7.45;59.30;101439.47;1574860;89;21149;-83
2022/04/27 04:40:13;;;;;;;17.07;11.23;;;;;;;7.38;59.33;101431.24;1570106;90;21085;-81
2022/04/27 04:42:42;;;;;;;19.92;11.48;;;;;;;7.36;59.41;101433.80;1568217;91;21494;-81
2022/04/27 04:45:09;;;;;;;16.13;10.70;;;;;;;7.41;59.46;101438.99;1575875;90;21336;-81
2022/04/27 04:47:35;;;;;;;40.83;20.95;;;;;;;7.45;59.45;101441.61;1568339;90;21118;-81
2022/04/27 04:50:02;;;;;;;118.75;55.17;;;;;;;7.48;59.51;101451.08;1575904;90;21154;-81
2022/04/27 04:52:28;;;;;;;32.28;18.37;;;;;;;7.52;59.55;101451.55;1576654;90;21639;-81
2022/04/27 04:54:54;;;;;;;24.47;13.60;;;;;;;7.58;59.49;101451.18;1576264;90;21098;-81
2022/04/27 04:57:38;;;;;;;17.80;11.65;;;;;;;7.62;59.50;101454.65;1571469;90;21709;-81
2022/04/27 05:00:08;;;;;;;25.07;12.23;;;;;;;7.67;59.51;101454.27;1565990;90;20968;-81
2022/04/27 05:02:34;;;;;;;18.73;11.83;;;;;;;7.70;59.24;101459.45;1562380;91;21131;-82
2022/04/27 05:05:03;;;;;;;22.73;11.73;;;;;;;7.72;59.51;101464.61;1562307;91;21114;-81
2022/04/27 05:07:31;;;;;;;16.15;11.38;;;;;;;7.77;59.54;101465.52;1562565;91;21095;-81
2022/04/27 05:09:57;;;;;;;17.32;10.70;;;;;;;7.82;59.56;101465.09;1562898;91;20964;-81
2022/04/27 05:12:24;;;;;;;21.48;11.33;;;;;;;7.86;59.54;101472.00;1565801;89;21394;-81
2022/04/27 05:14:53;;;;;;;20.85;10.75;;;;;;;7.88;59.53;101471.17;1585887;89;20966;-81
2022/04/27 05:17:20;;;;;;;18.42;11.05;;;;;;;7.91;59.50;101475.05;1606114;88;21034;-81
2022/04/27 05:19:48;;;;;;;22.22;11.70;;;;;;;7.94;59.52;101478.95;1598766;88;20906;-81
2022/04/27 05:22:16;;;;;;;20.35;11.22;;;;;;;7.97;59.51;101490.56;1618779;87;20974;-81
2022/04/27 05:24:42;;;;;;;18.43;10.73;;;;;;;7.98;59.53;101487.56;1607709;88;20938;-81
2022/04/27 05:27:08;;;;;;;30.00;10.87;;;;;;;8.04;59.56;101488.91;1594898;88;20963;-82
2022/04/27 05:32:22;;;;;;;16.55;10.15;;;;;;;8.14;59.57;101495.00;1536878;92;21011;-81
2022/04/27 05:34:48;;;;;;;12.70;9.15;;;;;;;8.18;59.58;101491.17;1536891;92;21189;-81
2022/04/27 05:37:15;;;;;;;15.85;10.20;;;;;;;8.25;59.64;101500.67;1537231;91;21272;-81
2022/04/27 05:39:41;;;;;;;19.17;10.00;;;;;;;8.29;59.65;101495.98;1537022;91;21155;-81
2022/04/27 05:42:10;;;;;;;14.58;9.28;;;;;;;8.34;59.63;101499.88;1536107;91;21117;-81
2022/04/27 05:44:36;;;;;;;14.47;9.37;;;;;;;8.36;59.67;101496.89;1549590;91;21137;-81
2022/04/27 05:47:02;;;;;;;14.67;9.10;;;;;;;8.42;59.56;101502.52;1537152;92;20935;-81
2022/04/27 05:49:30;;;;;;;16.42;9.20;;;;;;;8.42;59.56;101502.52;1539378;91;21109;-82
2022/04/27 05:51:56;;;;;;;14.53;8.30;;;;;;;8.43;59.61;101511.97;1537245;92;21161;-81
2022/04/27 05:54:22;;;;;;;18.10;9.67;;;;;;;8.45;59.62;101516.71;1538032;91;21065;-82
2022/04/27 05:56:49;;;;;;;16.83;9.17;;;;;;;8.47;59.63;101512.00;1535967;91;21284;-81
2022/04/27 05:59:14;;;;;;;13.38;7.85;;;;;;;8.53;59.67;101515.91;1538006;91;21959;-81
2022/04/27 06:01:41;;;;;;;14.40;7.70;;;;;;;8.58;59.63;101516.81;1544121;91;21668;-81
2022/04/27 06:04:08;;;;;;;;;;;;;;;8.61;59.65;101519.83;1590007;87;21417;-82
2022/04/27 06:06:34;;;;;;;15.13;7.60;;;;;;;8.65;59.80;101525.88;1608844;87;20523;-82
2022/04/27 06:09:04;;;;;;;16.60;8.73;;;;;;;8.70;59.72;101526.77;1607419;87;21221;-81
2022/04/27 06:11:30;;;;;;;15.43;7.92;;;;;;;8.75;59.68;101528.95;1605296;87;20969;-81
2022/04/27 06:13:56;;;;;;;13.90;9.07;;;;;;;8.79;59.67;101531.98;1604368;87;21036;-82
2022/04/27 06:16:24;;;;;;;14.83;7.13;;;;;;;8.82;59.64;101529.00;1600876;88;21068;-81
2022/04/27 06:18:50;;;;;;;13.98;7.62;;;;;;;8.87;59.68;101535.44;1600795;88;21517;-81
2022/04/27 06:21:19;;;;;;;;;;;;;;;8.91;59.67;101543.20;1550857;88;5001166;-80
2022/04/27 06:23:46;;;;;;;16.12;10.75;;;;;;;8.96;59.79;101547.09;1590943;88;20581;-82
2022/04/27 06:26:11;;;;;;;16.20;10.43;;;;;;;9.00;59.69;101550.12;1614202;87;20948;-81
2022/04/27 06:28:38;;;;;;;13.67;9.33;;;;;;;9.04;59.71;101548.00;1613347;87;20913;-81
2022/04/27 06:31:04;;;;;;;15.15;9.35;;;;;;;9.12;59.70;101548.05;1613052;87;21643;-81
2022/04/27 06:33:36;;;;;;;14.70;8.98;;;;;;;9.17;59.71;101549.80;1598967;88;20972;-82
2022/04/27 06:36:02;;;;;;;11.97;8.63;;;;;;;9.21;59.68;101556.69;1614351;87;21071;-82
2022/04/27 06:38:28;;;;;;;13.00;8.67;;;;;;;9.24;59.70;101557.14;1579466;88;21813;-81
2022/04/27 06:40:55;;;;;;;14.13;8.63;;;;;;;9.30;59.73;101559.75;1595664;88;21815;-82
2022/04/27 06:43:21;;;;;;;15.37;9.33;;;;;;;9.36;59.70;101560.20;1600314;88;21060;-82
2022/04/27 06:45:49;;;;;;;12.33;8.00;;;;;;;9.41;59.72;101558.47;1591839;88;21066;-81
2022/04/27 06:48:15;;;;;;;15.45;8.65;;;;;;;9.45;59.71;101559.78;1596009;88;21022;-81
2022/04/27 06:50:41;;;;;;;15.47;8.73;;;;;;;9.49;59.75;101565.81;1615530;87;21344;-81
2022/04/27 06:53:09;;;;;;;13.20;8.38;;;;;;;9.53;59.76;101567.55;1598645;88;21001;-82
2022/04/27 06:55:35;;;;;;;12.33;7.92;;;;;;;9.54;59.73;101568.84;1613857;87;21668;-82
2022/04/27 06:58:01;;;;;;;13.20;8.38;;;;;;;9.57;59.70;101571.88;1586621;88;21563;-81
2022/04/27 07:00:28;;;;;;;18.95;10.93;;;;;;;9.60;59.76;101574.47;1613220;87;21616;-81
2022/04/27 07:02:54;;;;;;;14.10;10.43;;;;;;;9.65;59.72;101579.22;1619112;87;21442;-81
2022/04/27 07:05:24;;;;;;;13.10;8.95;;;;;;;9.70;59.74;101576.22;1611244;87;21127;-82
2022/04/27 07:07:50;;;;;;;14.95;8.60;;;;;;;9.72;59.71;101578.38;1598245;88;21423;-82
2022/04/27 07:10:19;;;;;;;16.13;9.00;;;;;;;9.74;59.73;101571.92;1595731;88;20993;-82
2022/04/27 07:12:46;;;;;;;16.48;7.97;;;;;;;9.81;59.77;101571.95;1604613;87;21549;-82
2022/04/27 07:15:12;;;;;;;14.43;8.05;;;;;;;9.85;59.74;101575.41;1597937;87;21089;-82
2022/04/27 07:17:39;;;;;;;11.43;8.13;;;;;;;9.90;59.74;101569.78;1614825;87;21004;-82
2022/04/27 07:20:06;;;;;;;12.55;8.35;;;;;;;9.98;59.72;101568.51;1596980;88;21511;-82
2022/04/27 07:22:33;;;;;;;12.95;7.78;;;;;;;10.04;59.72;101577.56;1597508;88;21390;-82
2022/04/27 07:24:58;;;;;;;13.47;7.60;;;;;;;10.13;59.76;101579.73;1614981;87;21681;-82
2022/04/27 07:27:25;;;;;;;15.67;8.73;;;;;;;10.21;59.73;101581.06;1588483;88;20953;-82
2022/04/27 07:29:51;;;;;;;14.65;8.75;;;;;;;10.30;59.71;101586.68;1596009;88;21073;-82
2022/04/27 07:32:17;;;;;;;9.55;8.08;;;;;;;10.35;59.69;101591.42;1613374;87;21507;-82
2022/04/27 07:34:43;;;;;;;10.67;7.93;;;;;;;10.44;59.71;101592.26;1599437;88;20927;-82
2022/04/27 07:37:10;;;;;;;11.33;8.70;;;;;;;10.54;59.72;101583.64;1595260;89;20935;-82
2022/04/27 07:39:38;;;;;;;12.90;8.13;;;;;;;10.68;59.74;101586.66;1610464;87;21055;-82
2022/04/27 07:42:05;;;;;;;10.20;7.70;;;;;;;10.83;59.70;101594.40;1594643;89;20964;-82
2022/04/27 07:44:31;;;;;;;10.50;7.55;;;;;;;10.92;59.62;101599.53;1595119;88;21690;-82
2022/04/27 07:46:58;;;;;;;8.93;7.65;;;;;;;11.03;59.67;101594.34;1615065;87;21520;-82
2022/04/27 07:49:24;;;;;;;10.90;7.90;;;;;;;11.18;59.74;101593.00;1608264;87;21653;-82
2022/04/27 07:51:51;;;;;;;11.40;7.97;;;;;;;11.34;59.69;101598.56;1614150;87;21688;-82
2022/04/27 07:54:17;;;;;;;13.72;7.55;;;;;;;11.53;59.77;101610.55;1612894;87;21091;-82
2022/04/27 07:56:43;;;;;;;13.43;8.10;;;;;;;11.73;59.71;101610.47;1596103;88;22110;-82
2022/04/27 07:59:09;;;;;;;12.05;8.55;;;;;;;11.95;59.69;101609.10;1592807;88;21079;-82
2022/04/27 08:01:35;;;;;;;10.77;8.00;;;;;;;12.15;59.66;101611.11;1611915;87;21592;-83
2022/04/27 08:04:01;;;;;;;10.78;7.90;;;;;;;12.30;59.57;101611.00;1603382;88;21073;-82
2022/04/27 08:06:27;;;;;;;13.93;7.47;;;;;;;12.45;59.58;101608.30;1596687;88;21606;-82
2022/04/27 08:08:53;;;;;;;18.00;8.17;;;;;;;12.61;59.54;101610.30;1613347;87;21508;-82
2022/04/27 08:11:20;;;;;;;10.37;7.27;;;;;;;12.74;59.45;101617.55;1610079;87;21652;-82
2022/04/27 08:13:47;;;;;;;11.28;8.08;;;;;;;12.88;59.50;101616.55;1612349;87;21149;-82
2022/04/27 08:16:13;;;;;;;13.00;7.83;;;;;;;13.05;59.42;101623.29;1611144;87;21548;-82
2022/04/27 08:18:40;;;;;;;11.03;7.97;;;;;;;13.18;59.36;101622.32;1606706;87;20956;-82
2022/04/27 08:21:21;;;;;;;9.13;7.95;;;;;;;13.31;59.32;101624.35;1597708;88;21464;-82
2022/04/27 08:23:46;;;;;;;12.00;8.08;;;;;;;13.43;59.26;101627.67;1591741;88;21509;-82
2022/04/27 08:26:13;;;;;;;11.85;7.87;;;;;;;13.61;59.19;101629.16;1594545;88;21413;-82
2022/04/27 08:28:41;;;;;;;12.80;7.85;;;;;;;13.74;59.13;101630.73;1598323;88;25214;-82
2022/04/27 08:31:09;;;;;;;9.73;7.75;;;;;;;13.93;59.18;101630.05;1599608;88;21390;-82
2022/04/27 08:33:36;;;;;;;9.70;7.37;;;;;;;14.05;58.98;101628.55;1614204;87;20901;-82
2022/04/27 08:36:03;;;;;;;13.98;7.78;;;;;;;14.22;58.99;101621.81;1587598;88;21458;-82
2022/04/27 08:38:30;;;;;;;11.68;7.20;;;;;;;14.43;58.88;101622.82;1596960;88;25393;-82
2022/04/27 08:40:57;;;;;;;9.83;7.42;;;;;;;14.55;58.72;101625.67;1614747;87;21401;-83
2022/04/27 08:43:24;;;;;;;10.75;6.50;;;;;;;14.73;58.74;101616.67;1614425;87;21385;-82
2022/04/27 08:45:50;;;;;;;9.93;7.45;;;;;;;14.93;58.71;101621.09;1616016;87;20937;-82
2022/04/27 08:48:18;;;;;;;;;;;;;;;15.10;58.46;101619.45;1616329;87;21365;-82
2022/04/27 08:50:45;;;;;;;10.10;6.95;;;;;;;15.31;57.86;101620.80;1615168;87;20415;-84
2022/04/27 08:53:12;;;;;;;11.08;6.83;;;;;;;15.46;58.35;101626.56;1614048;88;20933;-83
2022/04/27 08:55:40;;;;;;;8.50;7.20;;;;;;;15.64;58.22;101628.39;1608047;87;20989;-83
2022/04/27 08:58:10;;;;;;;9.80;6.25;;;;;;;15.77;58.26;101620.28;1621748;87;21436;-83
2022/04/27 09:00:37;;;;;;;6.03;5.53;;;;;;;15.96;58.16;101618.13;1595825;88;20925;-83
2022/04/27 09:03:31;;;;;;;;;;;;;;;16.19;58.12;101622.80;1615845;87;21433;-83
2022/04/27 09:06:12;;;;;;;5.47;4.55;;;;;;;16.35;57.34;101624.17;1608830;87;20103;-83
2022/04/27 09:08:46;;;;;;;8.80;5.35;;;;;;;16.47;57.68;101629.55;1596103;88;20949;-83
2022/04/27 09:11:32;;;;;;;6.70;4.72;;;;;;;16.50;57.56;101627.72;1614999;87;20969;-83
2022/04/27 09:14:11;;;;;;;7.28;5.75;;;;;;;16.61;57.41;101627.91;1623183;87;21024;-84
2022/04/27 09:22:12;;;;;;;6.55;5.05;;;;;;;16.65;56.95;101632.16;1576701;89;21065;-83
2022/04/27 09:24:52;;;;;;;6.83;5.60;;;;;;;16.64;56.83;101626.08;1614001;87;21084;-83
2022/04/27 09:27:26;;;;;;;9.15;5.28;;;;;;;16.70;56.75;101630.29;1599023;88;21094;-83
2022/04/27 09:30:02;;;;;;;5.80;4.83;;;;;;;16.78;56.63;101624.42;1612994;87;21020;-83
2022/04/27 09:32:29;;;;;;;;;;;;;;;16.83;56.18;101626.02;1593605;88;21129;-83
2022/04/27 09:34:56;;;;;;;4.83;4.35;;;;;;;16.88;55.76;101628.07;1596858;88;20509;-83
2022/04/27 09:37:24;;;;;;;6.85;4.42;;;;;;;16.96;55.99;101628.32;1613574;87;21508;-82
2022/04/27 09:40:07;;;;;;;6.83;4.08;;;;;;;16.96;55.89;101626.56;1597021;88;20969;-83
2022/04/27 09:42:36;;;;;;;5.08;4.20;;;;;;;17.07;55.81;101630.20;1602714;88;20936;-83
2022/04/27 09:45:25;;;;;;;5.78;4.10;;;;;;;17.14;55.45;101633.06;1607862;88;20950;-83
2022/04/27 09:48:03;;;;;;;4.28;3.77;;;;;;;17.11;55.26;101639.23;1595193;88;21024;-83
2022/04/27 09:50:37;;;;;;;5.87;4.05;;;;;;;17.14;55.12;101635.23;1598355;88;20916;-83
2022/04/27 09:53:06;;;;;;;9.90;4.35;;;;;;;17.11;54.83;101631.84;1594151;88;20936;-83
2022/04/27 09:55:32;;;;;;;4.03;3.25;;;;;;;17.05;54.66;101627.63;1606526;88;20984;-83
2022/04/27 09:57:59;;;;;;;9.37;3.90;;;;;;;17.09;54.55;101630.57;1615226;87;20893;-83
2022/04/27 10:00:26;;;;;;;9.15;3.60;;;;;;;17.07;54.14;101629.76;1602730;88;21665;-82
2022/04/27 10:02:53;;;;;;;;;;;;;;;17.11;54.15;101629.22;1619976;87;20961;-83
2022/04/27 10:05:22;;;;;;;5.28;3.10;;;;;;;17.14;53.23;101619.55;1588874;88;20551;-83
2022/04/27 10:07:51;;;;;;;5.83;4.22;;;;;;;17.18;53.86;101626.37;1615131;87;21391;-83
2022/04/27 10:10:17;;;;;;;4.45;3.33;;;;;;;17.24;53.70;101625.80;1597834;88;20985;-83
2022/04/27 10:12:43;;;;;;;3.87;3.43;;;;;;;17.29;53.50;101622.16;1594411;88;20967;-83
2022/04/27 10:15:11;;;;;;;6.33;2.83;;;;;;;17.30;53.24;101629.10;1601561;87;20931;-82
2022/04/27 10:17:39;;;;;;;3.85;3.20;;;;;;;17.32;53.14;101627.30;1617750;87;20910;-82
2022/04/27 10:20:31;;;;;;;3.60;3.30;;;;;;;17.36;52.99;101625.02;1605880;87;21893;-82
2022/04/27 10:23:22;;;;;;;4.25;3.20;;;;;;;17.37;52.74;101627.17;1604118;88;20991;-82
2022/04/27 10:26:29;;;;;;;3.90;2.90;;;;;;;17.41;52.64;101625.74;1612867;87;21091;-83
2022/04/27 10:28:57;;;;;;;8.48;3.00;;;;;;;17.44;52.43;101632.20;1602097;87;21085;-83
2022/04/27 10:31:56;;;;;;;3.42;3.12;;;;;;;17.46;52.21;101626.92;1604915;87;21159;-83
2022/04/27 10:34:25;;;;;;;3.33;3.02;;;;;;;17.45;52.07;101627.82;1605244;87;21165;-83
2022/04/27 10:36:56;;;;;;;3.35;3.02;;;;;;;17.47;51.83;101628.64;1611692;87;21069;-83
2022/04/27 10:39:25;;;;;;;5.83;3.30;;;;;;;17.48;51.75;101633.83;1603076;87;21541;-84
2022/04/27 10:42:08;;;;;;;6.87;3.00;;;;;;;17.51;51.53;101627.20;1621729;87;20974;-83
2022/04/27 10:44:59;;;;;;;;;;;;;;;17.51;51.42;101625.03;1608602;87;21033;-83
2022/04/27 10:47:21;;;;;;;3.15;2.60;;;;;;;17.51;50.55;101627.20;1610468;88;20112;-83
2022/04/27 10:50:00;;;;;;;4.22;2.77;;;;;;;17.38;50.90;101628.44;1605764;87;20983;-83
2022/04/27 10:52:26;;;;;;;4.10;2.92;;;;;;;17.21;50.71;101622.81;1588029;88;20958;-83
2022/04/27 10:54:52;;;;;;;;;;;;;;;17.19;50.69;101622.00;1592638;87;20957;-83
2022/04/27 10:57:26;;;;;;;2.70;2.50;;;;;;;17.14;49.29;101615.63;1610183;87;20188;-83
2022/04/27 11:00:02;;;;;;;3.65;2.27;;;;;;;17.04;50.28;101620.69;1596968;88;20982;-83
2022/04/27 11:02:44;;;;;;;2.98;2.33;;;;;;;16.98;50.10;101617.38;1606048;87;20934;-83
2022/04/27 11:05:16;;;;;;;2.65;2.05;;;;;;;16.88;49.82;101612.84;1604547;87;21014;-83
2022/04/27 11:08:06;;;;;;;4.70;2.50;;;;;;;16.74;49.68;101615.81;1611260;87;20975;-83
2022/04/27 11:10:32;;;;;;;2.98;2.08;;;;;;;16.65;49.55;101609.95;1606204;87;20997;-83
2022/04/27 11:13:00;;;;;;;3.75;2.70;;;;;;;16.55;49.35;101611.94;1604461;88;20973;-83
2022/04/27 11:15:27;;;;;;;2.55;2.15;;;;;;;16.42;49.19;101606.61;1618215;87;20940;-83
2022/04/27 11:18:01;;;;;;;4.75;2.00;;;;;;;16.31;49.11;101611.22;1622689;87;20945;-83
2022/04/27 11:20:31;;;;;;;3.00;2.70;;;;;;;16.26;49.02;101611.33;1615718;87;21540;-83
2022/04/27 11:23:00;;;;;;;4.37;3.22;;;;;;;16.23;48.89;101611.41;1605670;87;21137;-83
2022/04/27 11:25:30;;;;;;;3.67;2.80;;;;;;;16.18;48.74;101616.73;1606876;87;21435;-83
2022/04/27 11:27:59;;;;;;;3.17;2.83;;;;;;;16.14;48.67;101611.17;1585635;88;21024;-83
2022/04/27 11:30:29;;;;;;;3.10;2.62;;;;;;;16.14;48.55;101607.25;1593466;88;20958;-83
2022/04/27 11:32:56;;;;;;;3.77;2.30;;;;;;;16.17;48.47;101605.88;1602450;88;21537;-83
2022/04/27 11:35:24;;;;;;;;;;;;;;;16.23;48.34;101600.52;1602645;88;20987;-83
2022/04/27 11:37:52;;;;;;;3.83;3.37;;;;;;;16.33;48.07;101604.22;1587269;89;20440;-83
2022/04/27 11:40:25;;;;;;;3.37;2.95;;;;;;;16.41;48.17;101597.05;1603519;88;20995;-83
2022/04/27 11:42:49;;;;;;;4.55;2.92;;;;;;;16.57;48.17;101598.84;1614436;87;20904;-83
2022/04/27 11:45:22;;;;;;;4.15;3.35;;;;;;;16.72;47.64;101597.16;1614144;87;21464;-83
2022/04/27 11:48:04;;;;;;;3.10;2.80;;;;;;;16.82;47.65;101597.33;1613434;87;20928;-83
2022/04/27 11:50:33;;;;;;;3.45;2.98;;;;;;;16.86;47.69;101599.82;1591872;88;20916;-83
2022/04/27 11:53:07;;;;;;;3.50;2.70;;;;;;;16.89;47.52;101593.66;1570195;89;32939;-83